sensor_id;sensor_type;location;lat;lon;timestamp;pressure;altitude;pressure_sealevel;temperature;humidity
64080;BME280;51042;49.696;10.808;2022-09-27T00:01:49;96674.19;;;10.32;100.00
64080;BME280;51042;49.696;10.808;2022-09-27T00:04:14;96679.69;;;10.32;100.00
64080;BME280;51042;49.696;10.808;2022-09-27T00:06:39;96667.94;;;10.32;100.00
64080;BME280;51042;49.696;10.808;2022-09-27T00:09:05;96674.41;;;10.29;100.00
64080;BME280;51042;49.696;10.808;2022-09-27T00:11:34;96662.13;;;10.24;100.00
64080;BME280;51042;49.696;10.808;2022-09-27T00:14:05;96656.81;;;10.20;100.00
64080;BME280;51042;49.696;10.808;2022-09-27T00:16:32;96660.66;;;10.14;100.00
64080;BME280;51042;49.696;10.808;2022-09-27T00:19:00;96656.31;;;10.07;100.00
64080;BME280;51042;49.696;10.808;2022-09-27T00:21:27;96649.16;;;10.10;100.00
64080;BME280;51042;49.696;10.808;2022-09-27T00:23:54;96652.66;;;10.10;100.00
64080;BME280;51042;49.696;10.808;2022-09-27T00:26:20;96645.38;;;10.07;100.00
64080;BME280;51042;49.696;10.808;2022-09-27T00:28:46;96636.59;;;10.03;100.00
64080;BME280;51042;49.696;10.808;2022-09-27T00:31:18;96638.78;;;9.99;100.00
64080;BME280;51042;49.696;10.808;2022-09-27T00:33:46;96634.44;;;9.93;100.00
64080;BME280;51042;49.696;10.808;2022-09-27T00:36:12;96627.16;;;9.90;100.00
64080;BME280;51042;49.696;10.808;2022-09-27T00:38:39;96631.13;;;9.89;100.00
64080;BME280;51042;49.696;10.808;2022-09-27T00:41:05;96621.41;;;9.88;100.00
64080;BME280;51042;49.696;10.808;2022-09-27T00:43:41;96615.91;;;9.88;100.00
64080;BME280;51042;49.696;10.808;2022-09-27T00:46:14;96617.16;;;9.87;100.00
64080;BME280;51042;49.696;10.808;2022-09-27T00:48:45;96613.09;;;9.82;100.00
64080;BME280;51042;49.696;10.808;2022-09-27T00:51:12;96606.28;;;9.77;100.00
64080;BME280;51042;49.696;10.808;2022-09-27T00:53:40;96604.50;;;9.74;100.00
64080;BME280;51042;49.696;10.808;2022-09-27T00:56:11;96597.97;;;9.72;100.00
64080;BME280;51042;49.696;10.808;2022-09-27T00:58:45;96602.88;;;9.68;100.00
64080;BME280;51042;49.696;10.808;2022-09-27T01:01:15;96600.81;;;9.63;100.00
64080;BME280;51042;49.696;10.808;2022-09-27T01:03:49;96591.09;;;9.62;100.00
64080;BME280;51042;49.696;10.808;2022-09-27T01:06:28;96594.78;;;9.59;100.00
64080;BME280;51042;49.696;10.808;2022-09-27T01:08:54;96589.94;;;9.54;100.00
64080;BME280;51042;49.696;10.808;2022-09-27T01:22:46;96582.59;;;9.45;100.00
64080;BME280;51042;49.696;10.808;2022-09-27T01:28:06;96581.53;;;9.42;100.00
64080;BME280;51042;49.696;10.808;2022-09-27T01:41:54;96558.22;;;9.32;100.00
64080;BME280;51042;49.696;10.808;2022-09-27T01:44:34;96555.69;;;9.29;100.00
64080;BME280;51042;49.696;10.808;2022-09-27T01:47:16;96553.88;;;9.26;100.00
64080;BME280;51042;49.696;10.808;2022-09-27T01:49:46;96545.38;;;9.24;100.00
64080;BME280;51042;49.696;10.808;2022-09-27T01:52:19;96548.13;;;9.24;100.00
64080;BME280;51042;49.696;10.808;2022-09-27T01:54:52;96549.63;;;9.25;100.00
64080;BME280;51042;49.696;10.808;2022-09-27T01:57:23;96552.09;;;9.23;100.00
64080;BME280;51042;49.696;10.808;2022-09-27T02:00:05;96554.06;;;9.22;100.00
64080;BME280;51042;49.696;10.808;2022-09-27T02:02:34;96552.56;;;9.21;100.00
64080;BME280;51042;49.696;10.808;2022-09-27T02:05:05;96543.88;;;9.23;100.00
64080;BME280;51042;49.696;10.808;2022-09-27T02:07:46;96537.91;;;9.24;100.00
64080;BME280;51042;49.696;10.808;2022-09-27T02:10:20;96539.34;;;9.20;100.00
64080;BME280;51042;49.696;10.808;2022-09-27T02:12:51;96539.34;;;9.20;100.00
64080;BME280;51042;49.696;10.808;2022-09-27T02:15:21;96535.69;;;9.23;100.00
64080;BME280;51042;49.696;10.808;2022-09-27T02:17:53;96534.63;;;9.20;100.00
64080;BME280;51042;49.696;10.808;2022-09-27T02:23:13;96532.66;;;9.21;100.00
64080;BME280;51042;49.696;10.808;2022-09-27T02:25:42;96522.47;;;9.21;100.00
64080;BME280;51042;49.696;10.808;2022-09-27T02:31:02;96515.94;;;9.19;100.00
64080;BME280;51042;49.696;10.808;2022-09-27T02:33:32;96519.63;;;9.16;100.00
64080;BME280;51042;49.696;10.808;2022-09-27T02:36:03;96507.16;;;9.15;100.00
64080;BME280;51042;49.696;10.808;2022-09-27T02:38:29;96516.13;;;9.15;100.00
64080;BME280;51042;49.696;10.808;2022-09-27T02:40:54;96506.88;;;9.13;100.00
64080;BME280;51042;49.696;10.808;2022-09-27T02:43:19;96505.34;;;9.12;100.00
64080;BME280;51042;49.696;10.808;2022-09-27T02:46:06;96502.16;;;9.13;100.00
64080;BME280;51042;49.696;10.808;2022-09-27T02:48:41;96511.13;;;9.14;100.00
64080;BME280;51042;49.696;10.808;2022-09-27T02:54:18;96510.75;;;9.21;100.00
64080;BME280;51042;49.696;10.808;2022-09-27T03:05:38;96497.63;;;9.25;100.00
64080;BME280;51042;49.696;10.808;2022-09-27T03:08:07;96494.63;;;9.23;100.00
64080;BME280;51042;49.696;10.808;2022-09-27T03:10:34;96494.34;;;9.21;100.00
64080;BME280;51042;49.696;10.808;2022-09-27T03:12:59;96495.84;;;9.22;100.00
64080;BME280;51042;49.696;10.808;2022-09-27T03:15:25;96490.38;;;9.22;100.00
64080;BME280;51042;49.696;10.808;2022-09-27T03:17:50;96487.44;;;9.25;100.00
64080;BME280;51042;49.696;10.808;2022-09-27T03:20:15;96501.13;;;9.25;100.00
64080;BME280;51042;49.696;10.808;2022-09-27T03:22:41;96495.19;;;9.27;100.00
64080;BME280;51042;49.696;10.808;2022-09-27T03:25:07;96499.69;;;9.30;100.00
64080;BME280;51042;49.696;10.808;2022-09-27T03:27:33;96501.22;;;9.31;100.00
64080;BME280;51042;49.696;10.808;2022-09-27T03:29:58;96494.50;;;9.32;100.00
64080;BME280;51042;49.696;10.808;2022-09-27T03:32:24;96491.78;;;9.32;100.00
64080;BME280;51042;49.696;10.808;2022-09-27T03:34:50;96495.75;;;9.31;100.00
64080;BME280;51042;49.696;10.808;2022-09-27T03:37:19;96498.69;;;9.27;100.00
64080;BME280;51042;49.696;10.808;2022-09-27T03:39:44;96490.00;;;9.29;100.00
64080;BME280;51042;49.696;10.808;2022-09-27T03:42:09;96492.25;;;9.30;100.00
64080;BME280;51042;49.696;10.808;2022-09-27T03:44:34;96487.72;;;9.27;100.00
64080;BME280;51042;49.696;10.808;2022-09-27T03:47:00;96487.53;;;9.31;100.00
64080;BME280;51042;49.696;10.808;2022-09-27T03:49:26;96479.91;;;9.35;100.00
64080;BME280;51042;49.696;10.808;2022-09-27T03:51:51;96480.16;;;9.37;100.00
64080;BME280;51042;49.696;10.808;2022-09-27T03:54:16;96480.91;;;9.37;100.00
64080;BME280;51042;49.696;10.808;2022-09-27T03:56:42;96487.16;;;9.38;100.00
64080;BME280;51042;49.696;10.808;2022-09-27T03:59:07;96483.66;;;9.37;100.00
64080;BME280;51042;49.696;10.808;2022-09-27T04:01:32;96485.16;;;9.38;100.00
64080;BME280;51042;49.696;10.808;2022-09-27T04:03:59;96485.38;;;9.35;100.00
64080;BME280;51042;49.696;10.808;2022-09-27T04:06:25;96492.06;;;9.34;100.00
64080;BME280;51042;49.696;10.808;2022-09-27T04:08:51;96489.03;;;9.32;100.00
64080;BME280;51042;49.696;10.808;2022-09-27T04:11:16;96481.50;;;9.27;100.00
64080;BME280;51042;49.696;10.808;2022-09-27T04:13:42;96490.16;;;9.25;100.00
64080;BME280;51042;49.696;10.808;2022-09-27T04:16:08;96491.41;;;9.24;100.00
64080;BME280;51042;49.696;10.808;2022-09-27T04:18:33;96495.66;;;9.25;100.00
64080;BME280;51042;49.696;10.808;2022-09-27T04:20:59;96498.59;;;9.22;100.00
64080;BME280;51042;49.696;10.808;2022-09-27T04:23:24;96491.31;;;9.19;100.00
64080;BME280;51042;49.696;10.808;2022-09-27T04:25:49;96498.00;;;9.18;100.00
64080;BME280;51042;49.696;10.808;2022-09-27T04:28:15;96504.44;;;9.15;100.00
64080;BME280;51042;49.696;10.808;2022-09-27T04:30:40;96500.94;;;9.14;100.00
64080;BME280;51042;49.696;10.808;2022-09-27T04:33:06;96506.88;;;9.13;100.00
64080;BME280;51042;49.696;10.808;2022-09-27T04:35:31;96508.38;;;9.14;100.00
64080;BME280;51042;49.696;10.808;2022-09-27T04:38:15;96512.84;;;9.11;100.00
64080;BME280;51042;49.696;10.808;2022-09-27T04:40:40;96514.06;;;9.10;100.00
64080;BME280;51042;49.696;10.808;2022-09-27T04:43:06;96509.81;;;9.09;100.00
64080;BME280;51042;49.696;10.808;2022-09-27T04:45:31;96510.00;;;9.06;100.00
64080;BME280;51042;49.696;10.808;2022-09-27T04:47:57;96517.72;;;9.07;100.00
64080;BME280;51042;49.696;10.808;2022-09-27T04:50:22;96511.97;;;9.05;100.00
64080;BME280;51042;49.696;10.808;2022-09-27T04:52:51;96515.34;;;9.00;100.00
64080;BME280;51042;49.696;10.808;2022-09-27T04:55:18;96513.56;;;8.97;100.00
64080;BME280;51042;49.696;10.808;2022-09-27T04:57:45;96514.31;;;8.97;100.00
64080;BME280;51042;49.696;10.808;2022-09-27T05:00:11;96519.50;;;8.95;100.00
64080;BME280;51042;49.696;10.808;2022-09-27T05:02:37;96525.44;;;8.94;100.00
64080;BME280;51042;49.696;10.808;2022-09-27T05:05:03;96523.94;;;8.93;100.00
64080;BME280;51042;49.696;10.808;2022-09-27T05:07:28;96524.56;;;8.88;100.00
64080;BME280;51042;49.696;10.808;2022-09-27T05:09:54;96526.09;;;8.89;100.00
64080;BME280;51042;49.696;10.808;2022-09-27T05:12:20;96520.06;;;8.85;100.00
64080;BME280;51042;49.696;10.808;2022-09-27T05:14:46;96530.69;;;8.83;100.00
64080;BME280;51042;49.696;10.808;2022-09-27T05:17:11;96529.31;;;8.87;100.00
64080;BME280;51042;49.696;10.808;2022-09-27T05:19:37;96526.00;;;8.83;100.00
64080;BME280;51042;49.696;10.808;2022-09-27T05:22:04;96532.22;;;8.84;100.00
64080;BME280;51042;49.696;10.808;2022-09-27T05:24:32;96529.78;;;8.86;100.00
64080;BME280;51042;49.696;10.808;2022-09-27T05:27:00;96530.53;;;8.86;100.00
64080;BME280;51042;49.696;10.808;2022-09-27T05:29:26;96531.28;;;8.87;100.00
64080;BME280;51042;49.696;10.808;2022-09-27T05:31:52;96535.72;;;8.84;100.00
64080;BME280;51042;49.696;10.808;2022-09-27T05:34:17;96532.97;;;8.84;100.00
64080;BME280;51042;49.696;10.808;2022-09-27T05:36:48;96539.00;;;8.88;100.00
64080;BME280;51042;49.696;10.808;2022-09-27T05:39:13;96534.31;;;8.89;100.00
64080;BME280;51042;49.696;10.808;2022-09-27T05:41:40;96531.09;;;8.90;100.00
64080;BME280;51042;49.696;10.808;2022-09-27T05:44:06;96541.59;;;8.92;100.00
64080;BME280;51042;49.696;10.808;2022-09-27T05:46:32;96540.38;;;8.93;100.00
64080;BME280;51042;49.696;10.808;2022-09-27T05:48:57;96545.63;;;8.96;100.00
64080;BME280;51042;49.696;10.808;2022-09-27T05:51:22;96538.47;;;8.99;100.00
64080;BME280;51042;49.696;10.808;2022-09-27T05:53:47;96544.81;;;9.05;100.00
64080;BME280;51042;49.696;10.808;2022-09-27T05:56:13;96546.59;;;9.08;100.00
64080;BME280;51042;49.696;10.808;2022-09-27T05:58:38;96552.53;;;9.07;100.00
64080;BME280;51042;49.696;10.808;2022-09-27T06:01:06;96552.53;;;9.07;100.00
64080;BME280;51042;49.696;10.808;2022-09-27T06:03:32;96552.06;;;9.08;100.00
64080;BME280;51042;49.696;10.808;2022-09-27T06:06:00;96560.09;;;9.12;100.00
64080;BME280;51042;49.696;10.808;2022-09-27T06:08:29;96559.34;;;9.11;100.00
64080;BME280;51042;49.696;10.808;2022-09-27T06:11:01;96553.88;;;9.11;100.00
64080;BME280;51042;49.696;10.808;2022-09-27T06:13:31;96567.25;;;9.09;100.00
64080;BME280;51042;49.696;10.808;2022-09-27T06:15:57;96561.50;;;9.07;100.00
64080;BME280;51042;49.696;10.808;2022-09-27T06:18:23;96563.00;;;9.08;100.00
64080;BME280;51042;49.696;10.808;2022-09-27T06:20:48;96570.19;;;9.06;100.00
64080;BME280;51042;49.696;10.808;2022-09-27T06:23:17;96576.41;;;9.06;100.00
64080;BME280;51042;49.696;10.808;2022-09-27T06:25:44;96581.31;;;9.02;100.00
64080;BME280;51042;49.696;10.808;2022-09-27T06:28:11;96585.09;;;9.05;100.00
64080;BME280;51042;49.696;10.808;2022-09-27T06:30:38;96579.44;;;9.08;100.00
64080;BME280;51042;49.696;10.808;2022-09-27T06:33:05;96577.09;;;9.16;100.00
64080;BME280;51042;49.696;10.808;2022-09-27T06:35:30;96583.69;;;9.24;100.00
64080;BME280;51042;49.696;10.808;2022-09-27T06:37:59;96598.53;;;9.32;100.00
64080;BME280;51042;49.696;10.808;2022-09-27T06:40:28;96598.34;;;9.35;100.00
64080;BME280;51042;49.696;10.808;2022-09-27T06:42:53;96594.66;;;9.38;100.00
64080;BME280;51042;49.696;10.808;2022-09-27T06:45:19;96602.78;;;9.33;100.00
64080;BME280;51042;49.696;10.808;2022-09-27T06:47:44;96603.69;;;9.30;100.00
64080;BME280;51042;49.696;10.808;2022-09-27T06:50:10;96618.34;;;9.27;100.00
64080;BME280;51042;49.696;10.808;2022-09-27T06:52:36;96628.13;;;9.19;100.00
64080;BME280;51042;49.696;10.808;2022-09-27T06:55:02;96630.31;;;9.15;100.00
64080;BME280;51042;49.696;10.808;2022-09-27T06:57:29;96628.69;;;9.08;100.00
64080;BME280;51042;49.696;10.808;2022-09-27T07:00:13;96640.84;;;9.07;100.00
64080;BME280;51042;49.696;10.808;2022-09-27T07:02:47;96653.41;;;9.14;100.00
64080;BME280;51042;49.696;10.808;2022-09-27T07:05:14;96647.19;;;9.13;100.00
64080;BME280;51042;49.696;10.808;2022-09-27T07:07:40;96649.75;;;9.17;100.00
64080;BME280;51042;49.696;10.808;2022-09-27T07:10:06;96659.44;;;9.18;100.00
64080;BME280;51042;49.696;10.808;2022-09-27T07:12:34;96659.94;;;9.16;100.00
64080;BME280;51042;49.696;10.808;2022-09-27T07:15:00;96663.44;;;9.17;100.00
64080;BME280;51042;49.696;10.808;2022-09-27T07:17:26;96671.66;;;9.17;100.00
64080;BME280;51042;49.696;10.808;2022-09-27T07:19:51;96674.97;;;9.21;100.00
64080;BME280;51042;49.696;10.808;2022-09-27T07:22:18;96677.41;;;9.19;100.00
64080;BME280;51042;49.696;10.808;2022-09-27T07:24:44;96679.09;;;9.16;100.00
64080;BME280;51042;49.696;10.808;2022-09-27T07:27:09;96679.47;;;9.24;100.00
64080;BME280;51042;49.696;10.808;2022-09-27T07:29:35;96692.91;;;9.36;100.00
64080;BME280;51042;49.696;10.808;2022-09-27T07:32:01;96695.00;;;9.41;100.00
64080;BME280;51042;49.696;10.808;2022-09-27T07:34:27;96713.72;;;9.43;100.00
64080;BME280;51042;49.696;10.808;2022-09-27T07:36:52;96707.97;;;9.41;100.00
64080;BME280;51042;49.696;10.808;2022-09-27T07:39:18;96710.22;;;9.42;100.00
64080;BME280;51042;49.696;10.808;2022-09-27T07:41:46;96712.25;;;9.57;100.00
64080;BME280;51042;49.696;10.808;2022-09-27T07:44:12;96714.31;;;9.62;98.73
64080;BME280;51042;49.696;10.808;2022-09-27T07:46:40;96709.25;;;9.84;98.18
64080;BME280;51042;49.696;10.808;2022-09-27T07:49:06;96720.53;;;10.01;97.63
64080;BME280;51042;49.696;10.808;2022-09-27T07:51:31;96712.94;;;10.10;95.33
64080;BME280;51042;49.696;10.808;2022-09-27T07:53:56;96720.72;;;10.41;95.70
64080;BME280;51042;49.696;10.808;2022-09-27T07:56:22;96718.69;;;10.56;94.90
64080;BME280;51042;49.696;10.808;2022-09-27T07:58:47;96722.50;;;10.59;94.82
64080;BME280;51042;49.696;10.808;2022-09-27T08:01:12;96731.47;;;10.59;94.73
64080;BME280;51042;49.696;10.808;2022-09-27T08:03:38;96727.97;;;10.44;94.82
64080;BME280;51042;49.696;10.808;2022-09-27T08:06:04;96733.09;;;10.22;95.80
64080;BME280;51042;49.696;10.808;2022-09-27T08:08:29;96735.53;;;10.05;98.11
64080;BME280;51042;49.696;10.808;2022-09-27T08:10:55;96745.00;;;10.04;99.75
64080;BME280;51042;49.696;10.808;2022-09-27T08:13:20;96735.06;;;10.07;100.00
64080;BME280;51042;49.696;10.808;2022-09-27T08:15:46;96747.19;;;10.30;99.86
64080;BME280;51042;49.696;10.808;2022-09-27T08:18:12;96747.28;;;10.35;98.87
64080;BME280;51042;49.696;10.808;2022-09-27T08:20:38;96757.22;;;10.33;97.19
64080;BME280;51042;49.696;10.808;2022-09-27T08:23:04;96750.41;;;10.28;97.83
64080;BME280;51042;49.696;10.808;2022-09-27T08:25:29;96754.09;;;10.25;98.42
64080;BME280;51042;49.696;10.808;2022-09-27T08:27:55;96756.81;;;10.10;97.87
64080;BME280;51042;49.696;10.808;2022-09-27T08:30:22;96757.69;;;10.16;99.03
64080;BME280;51042;49.696;10.808;2022-09-27T08:32:48;96755.38;;;10.15;97.22
64080;BME280;51042;49.696;10.808;2022-09-27T08:35:13;96760.97;;;10.06;97.26
64080;BME280;51042;49.696;10.808;2022-09-27T08:37:39;96762.91;;;9.91;97.19
64080;BME280;51042;49.696;10.808;2022-09-27T08:40:05;96759.59;;;9.87;99.12
64080;BME280;51042;49.696;10.808;2022-09-27T08:42:35;96761.50;;;9.95;99.04
64080;BME280;51042;49.696;10.808;2022-09-27T08:45:12;96776.91;;;10.07;97.87
64080;BME280;51042;49.696;10.808;2022-09-27T08:47:45;96778.75;;;10.25;97.74
64080;BME280;51042;49.696;10.808;2022-09-27T08:50:30;96782.19;;;10.35;96.24
64080;BME280;51042;49.696;10.808;2022-09-27T08:53:01;96777.63;;;10.32;96.90
64080;BME280;51042;49.696;10.808;2022-09-27T09:01:01;96796.09;;;10.07;98.19
64080;BME280;51042;49.696;10.808;2022-09-27T09:03:28;96794.03;;;10.02;98.19
64080;BME280;51042;49.696;10.808;2022-09-27T09:11:21;96793.03;;;10.58;95.69
64080;BME280;51042;49.696;10.808;2022-09-27T09:17:11;96804.91;;;10.85;91.92
64080;BME280;51042;49.696;10.808;2022-09-27T09:25:35;96806.66;;;10.82;94.49
64080;BME280;51042;49.696;10.808;2022-09-27T09:28:30;96817.53;;;10.47;95.64
64080;BME280;51042;49.696;10.808;2022-09-27T09:33:48;96801.19;;;10.23;96.59
64080;BME280;51042;49.696;10.808;2022-09-27T09:36:26;96811.16;;;10.12;98.16
64080;BME280;51042;49.696;10.808;2022-09-27T09:39:09;96810.09;;;10.09;100.00
64080;BME280;51042;49.696;10.808;2022-09-27T09:44:48;96823.09;;;10.38;95.91
64080;BME280;51042;49.696;10.808;2022-09-27T09:50:05;96818.63;;;10.85;94.32
64080;BME280;51042;49.696;10.808;2022-09-27T09:52:44;96813.97;;;11.05;92.19
64080;BME280;51042;49.696;10.808;2022-09-27T09:55:22;96808.03;;;11.27;90.34
64080;BME280;51042;49.696;10.808;2022-09-27T09:58:00;96812.69;;;11.36;91.21
64080;BME280;51042;49.696;10.808;2022-09-27T10:00:43;96804.03;;;11.43;89.92
64080;BME280;51042;49.696;10.808;2022-09-27T10:03:10;96813.69;;;11.73;89.13
64080;BME280;51042;49.696;10.808;2022-09-27T10:05:35;96810.22;;;11.99;88.26
64080;BME280;51042;49.696;10.808;2022-09-27T10:08:02;96809.66;;;12.15;84.88
64080;BME280;51042;49.696;10.808;2022-09-27T10:10:31;96811.84;;;12.11;83.47
64080;BME280;51042;49.696;10.808;2022-09-27T10:12:58;96815.75;;;12.24;83.88
64080;BME280;51042;49.696;10.808;2022-09-27T10:15:27;96812.19;;;12.18;82.37
64080;BME280;51042;49.696;10.808;2022-09-27T10:17:58;96813.09;;;12.10;84.17
64080;BME280;51042;49.696;10.808;2022-09-27T10:22:57;96825.13;;;12.64;84.71
64080;BME280;51042;49.696;10.808;2022-09-27T10:25:43;96818.44;;;12.71;81.72
64080;BME280;51042;49.696;10.808;2022-09-27T10:28:24;96811.13;;;12.62;80.41
64080;BME280;51042;49.696;10.808;2022-09-27T10:31:05;96833.69;;;12.97;80.98
64080;BME280;51042;49.696;10.808;2022-09-27T10:33:32;96830.00;;;13.43;76.01
64080;BME280;51042;49.696;10.808;2022-09-27T10:35:59;96840.59;;;13.56;76.53
64080;BME280;51042;49.696;10.808;2022-09-27T10:41:14;96823.75;;;12.74;81.33
64080;BME280;51042;49.696;10.808;2022-09-27T10:43:41;96837.22;;;12.46;83.34
64080;BME280;51042;49.696;10.808;2022-09-27T10:49:09;96845.94;;;12.19;86.48
64080;BME280;51042;49.696;10.808;2022-09-27T10:51:51;96845.59;;;12.11;82.89
64080;BME280;51042;49.696;10.808;2022-09-27T10:56:52;96845.66;;;12.37;81.43
64080;BME280;51042;49.696;10.808;2022-09-27T10:59:23;96840.44;;;12.39;80.74
64080;BME280;51042;49.696;10.808;2022-09-27T11:01:50;96836.69;;;12.68;80.90
64080;BME280;51042;49.696;10.808;2022-09-27T11:06:48;96841.88;;;13.23;76.77
64080;BME280;51042;49.696;10.808;2022-09-27T11:09:22;96855.44;;;12.95;76.11
64080;BME280;51042;49.696;10.808;2022-09-27T11:11:50;96850.16;;;12.92;77.62
64080;BME280;51042;49.696;10.808;2022-09-27T11:14:30;96849.47;;;13.28;78.13
64080;BME280;51042;49.696;10.808;2022-09-27T11:17:04;96844.00;;;13.34;74.00
64080;BME280;51042;49.696;10.808;2022-09-27T11:25:44;96843.97;;;13.76;71.72
64080;BME280;51042;49.696;10.808;2022-09-27T11:36:31;96833.84;;;12.88;73.70
64080;BME280;51042;49.696;10.808;2022-09-27T11:39:20;96831.53;;;12.50;72.31
64080;BME280;51042;49.696;10.808;2022-09-27T11:41:55;96836.09;;;12.33;74.35
64080;BME280;51042;49.696;10.808;2022-09-27T11:44:27;96832.78;;;12.28;75.47
64080;BME280;51042;49.696;10.808;2022-09-27T11:47:08;96834.56;;;12.06;76.94
64080;BME280;51042;49.696;10.808;2022-09-27T11:52:27;96834.19;;;12.18;77.71
64080;BME280;51042;49.696;10.808;2022-09-27T11:55:19;96825.28;;;12.81;76.08
64080;BME280;51042;49.696;10.808;2022-09-27T11:58:14;96820.47;;;13.38;71.80
64080;BME280;51042;49.696;10.808;2022-09-27T12:00:55;96820.41;;;13.75;71.46
64080;BME280;51042;49.696;10.808;2022-09-27T12:06:24;96822.69;;;14.53;67.61
64080;BME280;51042;49.696;10.808;2022-09-27T12:11:33;96829.84;;;14.22;68.88
64080;BME280;51042;49.696;10.808;2022-09-27T12:16:47;96829.72;;;14.65;68.34
64080;BME280;51042;49.696;10.808;2022-09-27T12:19:29;96831.97;;;15.11;67.74
64080;BME280;51042;49.696;10.808;2022-09-27T12:22:01;96828.72;;;14.85;66.27
64080;BME280;51042;49.696;10.808;2022-09-27T12:24:29;96823.34;;;14.25;68.30
64080;BME280;51042;49.696;10.808;2022-09-27T12:26:58;96828.03;;;14.03;66.97
64080;BME280;51042;49.696;10.808;2022-09-27T12:29:33;96830.84;;;14.19;66.94
64080;BME280;51042;49.696;10.808;2022-09-27T12:34:38;96837.22;;;13.35;72.90
64080;BME280;51042;49.696;10.808;2022-09-27T12:40:05;96830.03;;;12.80;74.66
64080;BME280;51042;49.696;10.808;2022-09-27T12:45:17;96823.72;;;13.05;74.24
64080;BME280;51042;49.696;10.808;2022-09-27T12:48:03;96826.66;;;13.28;74.78
64080;BME280;51042;49.696;10.808;2022-09-27T12:50:38;96810.78;;;13.54;74.30
64080;BME280;51042;49.696;10.808;2022-09-27T12:53:15;96809.47;;;13.98;70.73
64080;BME280;51042;49.696;10.808;2022-09-27T13:01:00;96811.00;;;13.45;70.94
64080;BME280;51042;49.696;10.808;2022-09-27T13:14:05;96816.72;;;12.21;77.38
64080;BME280;51042;49.696;10.808;2022-09-27T13:16:45;96816.44;;;11.73;82.10
64080;BME280;51042;49.696;10.808;2022-09-27T13:19:54;96810.94;;;11.18;77.42
64080;BME280;51042;49.696;10.808;2022-09-27T13:25:01;96821.28;;;10.94;79.05
64080;BME280;51042;49.696;10.808;2022-09-27T13:30:41;96815.53;;;11.27;74.98
64080;BME280;51042;49.696;10.808;2022-09-27T13:32:40;96821.34;;;11.49;75.56
64080;BME280;51042;49.696;10.808;2022-09-27T13:35:34;96808.97;;;11.59;74.44
64080;BME280;51042;49.696;10.808;2022-09-27T13:37:59;96812.69;;;11.56;74.74
64080;BME280;51042;49.696;10.808;2022-09-27T13:45:26;96815.63;;;11.53;73.29
64080;BME280;51042;49.696;10.808;2022-09-27T13:48:00;96823.53;;;11.65;73.93
64080;BME280;51042;49.696;10.808;2022-09-27T13:50:55;96822.50;;;11.63;73.59
64080;BME280;51042;49.696;10.808;2022-09-27T13:55:57;96814.63;;;11.70;72.59
64080;BME280;51042;49.696;10.808;2022-09-27T14:01:39;96829.81;;;11.86;73.60
64080;BME280;51042;49.696;10.808;2022-09-27T14:04:13;96830.97;;;12.00;70.78
64080;BME280;51042;49.696;10.808;2022-09-27T14:06:44;96838.47;;;11.99;71.73
64080;BME280;51042;49.696;10.808;2022-09-27T14:09:17;96833.78;;;12.05;70.59
64080;BME280;51042;49.696;10.808;2022-09-27T14:11:44;96824.72;;;11.99;70.37
64080;BME280;51042;49.696;10.808;2022-09-27T14:14:18;96829.00;;;12.00;70.53
64080;BME280;51042;49.696;10.808;2022-09-27T14:16:47;96821.91;;;11.94;70.12
64080;BME280;51042;49.696;10.808;2022-09-27T14:19:20;96824.66;;;11.94;70.61
64080;BME280;51042;49.696;10.808;2022-09-27T14:21:48;96833.94;;;11.96;70.41
64080;BME280;51042;49.696;10.808;2022-09-27T14:24:18;96830.44;;;11.96;70.51
64080;BME280;51042;49.696;10.808;2022-09-27T14:26:44;96834.19;;;12.18;71.10
64080;BME280;51042;49.696;10.808;2022-09-27T14:29:16;96832.78;;;12.28;70.90
64080;BME280;51042;49.696;10.808;2022-09-27T14:31:42;96831.97;;;12.22;70.44
64080;BME280;51042;49.696;10.808;2022-09-27T14:34:07;96831.84;;;12.11;71.76
64080;BME280;51042;49.696;10.808;2022-09-27T14:36:36;96832.50;;;11.80;71.27
64080;BME280;51042;49.696;10.808;2022-09-27T14:39:21;96826.97;;;11.60;71.63
64080;BME280;51042;49.696;10.808;2022-09-27T14:41:55;96836.03;;;11.46;73.07
64080;BME280;51042;49.696;10.808;2022-09-27T14:44:20;96833.56;;;11.48;73.42
64080;BME280;51042;49.696;10.808;2022-09-27T14:46:46;96828.06;;;11.48;73.81
64080;BME280;51042;49.696;10.808;2022-09-27T14:49:18;96833.97;;;11.41;72.68
64080;BME280;51042;49.696;10.808;2022-09-27T14:51:52;96834.59;;;11.51;73.29
64080;BME280;51042;49.696;10.808;2022-09-27T14:54:23;96834.09;;;11.52;73.84
64080;BME280;51042;49.696;10.808;2022-09-27T14:56:51;96831.28;;;11.46;72.98
64080;BME280;51042;49.696;10.808;2022-09-27T14:59:26;96834.88;;;11.53;73.70
64080;BME280;51042;49.696;10.808;2022-09-27T15:01:57;96839.59;;;11.52;74.04
64080;BME280;51042;49.696;10.808;2022-09-27T15:04:26;96826.22;;;11.60;73.67
64080;BME280;51042;49.696;10.808;2022-09-27T15:06:54;96832.00;;;11.62;73.77
64080;BME280;51042;49.696;10.808;2022-09-27T15:09:20;96824.91;;;11.55;73.67
64080;BME280;51042;49.696;10.808;2022-09-27T15:11:51;96831.06;;;11.50;72.69
64080;BME280;51042;49.696;10.808;2022-09-27T15:14:19;96825.78;;;11.46;73.53
64080;BME280;51042;49.696;10.808;2022-09-27T15:16:46;96828.06;;;11.48;74.00
64080;BME280;51042;49.696;10.808;2022-09-27T15:21:49;96832.00;;;11.62;74.75
64080;BME280;51042;49.696;10.808;2022-09-27T15:27:16;96824.03;;;11.64;74.81
64080;BME280;51042;49.696;10.808;2022-09-27T15:29:55;96824.41;;;11.57;75.81
64080;BME280;51042;49.696;10.808;2022-09-27T15:32:26;96814.81;;;11.46;75.23
64080;BME280;51042;49.696;10.808;2022-09-27T15:34:53;96821.66;;;11.36;75.90
64080;BME280;51042;49.696;10.808;2022-09-27T15:37:27;96824.56;;;11.48;75.27
64080;BME280;51042;49.696;10.808;2022-09-27T15:46:02;96814.34;;;11.48;75.03